Time,TemperatureF,DewpointF,PressureIn,WindDirection,WindDirectionDegrees,WindSpeedMPH,WindSpeedGustMPH,Humidity,HourlyPrecipIn,Conditions,Clouds,dailyrainin,SoftwareType,DateUTC
2013-01-07 00:04:00,17.4,-0.8,23.00,NNE,30,0.0,0.0,44,0.00,,---,0.00,VWS V14.00,2013-01-07 07:04:00,
2013-01-07 00:09:00,17.4,-0.8,23.00,NNE,30,0.0,0.0,44,0.00,,---,0.00,VWS V14.00,2013-01-07 07:09:00,
2013-01-07 00:14:00,17.2,-0.9,23.00,NNE,30,0.0,0.0,44,0.00,,---,0.00,VWS V14.00,2013-01-07 07:14:00,
2013-01-07 00:19:00,17.2,-0.9,23.00,NNE,30,0.0,0.0,44,0.00,,---,0.00,VWS V14.00,2013-01-07 07:19:00,
2013-01-07 00:24:00,17.1,-1.1,23.00,NNE,30,0.0,0.0,44,0.00,,---,0.00,VWS V14.00,2013-01-07 07:24:00,
2013-01-07 00:29:00,17.1,-1.1,23.00,NNE,30,0.0,0.0,44,0.00,,---,0.00,VWS V14.00,2013-01-07 07:29:00,
2013-01-07 00:34:00,16.9,-1.2,23.00,NNE,30,0.0,0.0,44,0.00,,---,0.00,VWS V14.00,2013-01-07 07:34:00,
2013-01-07 00:39:00,16.9,-1.2,23.00,NNE,30,0.0,0.0,44,0.00,,---,0.00,VWS V14.00,2013-01-07 07:39:00,
2013-01-07 00:44:00,16.9,-1.2,23.00,NNE,30,0.0,0.0,44,0.00,,---,0.00,VWS V14.00,2013-01-07 07:44:00,
2013-01-07 00:49:00,16.9,-1.2,23.00,NNE,30,0.0,0.0,44,0.00,,---,0.00,VWS V14.00,2013-01-07 07:49:00,
2013-01-07 00:55:00,16.9,-1.2,23.00,NNE,30,0.0,0.0,44,0.00,,---,0.00,VWS V14.00,2013-01-07 07:55:00,
2013-01-07 01:00:00,17.1,-1.1,23.00,NNE,30,0.0,0.0,44,0.00,,---,0.00,VWS V14.00,2013-01-07 08:00:00,
2013-01-07 01:05:00,17.1,-1.1,23.00,NNE,30,0.0,0.0,44,0.00,,---,0.00,VWS V14.00,2013-01-07 08:05:00,
2013-01-07 01:10:00,17.1,-1.1,23.00,NNE,30,0.0,0.0,44,0.00,,---,0.00,VWS V14.00,2013-01-07 08:10:00,
2013-01-07 01:15:00,17.1,-1.1,23.00,NNE,30,0.0,0.0,44,0.00,,---,0.00,VWS V14.00,2013-01-07 08:15:00,
2013-01-07 01:20:00,16.9,-1.2,23.00,NNE,30,0.0,0.0,44,0.00,,---,0.00,VWS V14.00,2013-01-07 08:20:00,
2013-01-07 01:25:00,16.9,-1.2,23.00,NNE,30,0.0,0.0,44,0.00,,---,0.00,VWS V14.00,2013-01-07 08:25:00,
2013-01-07 01:30:00,16.9,-1.2,23.00,NNE,30,0.0,0.0,44,0.00,,---,0.00,VWS V14.00,2013-01-07 08:30:00,
2013-01-07 01:35:00,17.1,-1.1,23.00,NNE,30,0.0,0.0,44,0.00,,---,0.00,VWS V14.00,2013-01-07 08:35:00,
2013-01-07 01:40:00,17.1,-1.1,23.00,NNE,30,0.0,0.0,44,0.00,,---,0.00,VWS V14.00,2013-01-07 08:40:00,
2013-01-07 01:45:00,17.4,-0.8,23.00,NNE,30,0.0,0.0,44,0.00,,---,0.00,VWS V14.00,2013-01-07 08:45:00,
2013-01-07 01:50:00,17.6,-0.6,23.00,NNE,30,0.0,0.0,44,0.00,,---,0.00,VWS V14.00,2013-01-07 08:50:00,
2013-01-07 01:55:00,17.8,-0.9,23.00,NNE,30,0.0,0.0,43,0.00,,---,0.00,VWS V14.00,2013-01-07 08:55:00,
2013-01-07 02:00:00,18.1,-0.6,22.97,NNE,30,0.0,0.0,43,0.00,,---,0.00,VWS V14.00,2013-01-07 09:00:00,
2013-01-07 02:05:00,18.3,-0.4,22.97,NNE,30,0.0,0.0,43,0.00,,---,0.00,VWS V14.00,2013-01-07 09:05:00,
2013-01-07 02:10:00,18.5,-0.3,22.97,NNE,30,0.0,0.0,43,0.00,,---,0.00,VWS V14.00,2013-01-07 09:10:00,
2013-01-07 02:16:00,18.7,-0.1,23.00,NNE,30,0.0,0.0,43,0.00,,---,0.00,VWS V14.00,2013-01-07 09:16:00,
2013-01-07 02:21:00,19.0,0.2,23.00,NNE,30,0.0,0.0,43,0.00,,---,0.00,VWS V14.00,2013-01-07 09:21:00,
2013-01-07 02:26:00,19.0,0.2,23.00,NNE,30,0.0,0.0,43,0.00,,---,0.00,VWS V14.00,2013-01-07 09:26:00,
2013-01-07 02:31:00,19.2,0.4,23.00,NNE,30,0.0,0.0,43,0.00,,---,0.00,VWS V14.00,2013-01-07 09:31:00,
2013-01-07 02:36:00,19.2,0.4,23.00,NNE,30,0.0,0.0,43,0.00,,---,0.00,VWS V14.00,2013-01-07 09:36:00,
2013-01-07 02:41:00,19.4,0.6,23.00,NNE,30,0.0,0.0,43,0.00,,---,0.00,VWS V14.00,2013-01-07 09:41:00,
2013-01-07 02:46:00,19.2,0.4,22.97,NNE,30,0.0,0.0,43,0.00,,---,0.00,VWS V14.00,2013-01-07 09:46:00,
2013-01-07 02:51:00,19.2,0.4,22.97,NNE,30,0.0,0.0,43,0.00,,---,0.00,VWS V14.00,2013-01-07 09:51:00,
2013-01-07 02:56:00,19.0,0.2,22.97,NNE,30,0.0,0.0,43,0.00,,---,0.00,VWS V14.00,2013-01-07 09:56:00,
2013-01-07 03:01:00,18.9,0.1,23.00,NNE,30,0.0,0.0,43,0.00,,---,0.00,VWS V14.00,2013-01-07 10:01:00,
2013-01-07 03:06:00,18.7,-0.1,23.00,NNE,30,0.0,0.0,43,0.00,,---,0.00,VWS V14.00,2013-01-07 10:06:00,
2013-01-07 03:11:00,18.5,-0.3,23.00,NNE,30,0.0,0.0,43,0.00,,---,0.00,VWS V14.00,2013-01-07 10:11:00,
2013-01-07 03:16:00,18.3,-0.4,23.00,NNE,30,0.0,0.0,43,0.00,,---,0.00,VWS V14.00,2013-01-07 10:16:00,
2013-01-07 03:21:00,17.8,-0.9,23.00,NNE,30,0.0,0.0,43,0.00,,---,0.00,VWS V14.00,2013-01-07 10:21:00,
2013-01-07 03:26:00,17.4,-0.8,23.00,NNE,30,0.0,0.0,44,0.00,,---,0.00,VWS V14.00,2013-01-07 10:26:00,
2013-01-07 03:31:00,16.9,-1.2,23.00,NNE,30,0.0,0.0,44,0.00,,---,0.00,VWS V14.00,2013-01-07 10:31:00,
2013-01-07 03:36:00,16.7,-1.4,23.00,NNE,30,0.0,0.0,44,0.00,,---,0.00,VWS V14.00,2013-01-07 10:36:00,
2013-01-07 03:41:00,16.3,-1.7,23.00,NNE,30,0.0,0.0,44,0.00,,---,0.00,VWS V14.00,2013-01-07 10:41:00,
2013-01-07 03:46:00,16.0,-2.1,22.97,NNE,30,0.0,0.0,44,0.00,,---,0.00,VWS V14.00,2013-01-07 10:46:00,
2013-01-07 03:51:00,15.8,-2.2,22.97,NNE,30,0.0,0.0,44,0.00,,---,0.00,VWS V14.00,2013-01-07 10:51:00,
2013-01-07 03:57:00,15.4,-2.6,22.97,NNE,30,0.0,0.0,44,0.00,,---,0.00,VWS V14.00,2013-01-07 10:57:00,
2013-01-07 04:02:00,15.3,-2.7,23.00,NNE,30,0.0,0.0,44,0.00,,---,0.00,VWS V14.00,2013-01-07 11:02:00,
2013-01-07 04:07:00,14.9,-3.1,23.00,NNE,30,0.0,0.0,44,0.00,,---,0.00,VWS V14.00,2013-01-07 11:07:00,
2013-01-07 04:12:00,14.5,-3.4,23.00,NNE,30,0.0,0.0,44,0.00,,---,0.00,VWS V14.00,2013-01-07 11:12:00,
2013-01-07 04:17:00,14.4,-3.6,23.00,NNE,30,0.0,0.0,44,0.00,,---,0.00,VWS V14.00,2013-01-07 11:17:00,
2013-01-07 04:22:00,14.2,-3.7,23.00,NNE,30,0.0,0.0,44,0.00,,---,0.00,VWS V14.00,2013-01-07 11:22:00,
2013-01-07 04:27:00,13.8,-3.6,23.00,NNE,30,0.0,0.0,45,0.00,,---,0.00,VWS V14.00,2013-01-07 11:27:00,
2013-01-07 04:32:00,13.6,-3.8,22.97,NNE,30,0.0,0.0,45,0.00,,---,0.00,VWS V14.00,2013-01-07 11:32:00,
2013-01-07 04:37:00,13.5,-3.9,22.97,NNE,30,0.0,0.0,45,0.00,,---,0.00,VWS V14.00,2013-01-07 11:37:00,
2013-01-07 04:42:00,13.3,-4.1,22.97,NNE,30,0.0,0.0,45,0.00,,---,0.00,VWS V14.00,2013-01-07 11:42:00,
2013-01-07 04:47:00,12.9,-4.4,22.97,NNE,30,0.0,0.0,45,0.00,,---,0.00,VWS V14.00,2013-01-07 11:47:00,
2013-01-07 04:52:00,12.7,-4.6,22.97,NNE,30,0.0,0.0,45,0.00,,---,0.00,VWS V14.00,2013-01-07 11:52:00,
2013-01-07 04:57:00,12.6,-4.7,22.97,NNE,30,0.0,0.0,45,0.00,,---,0.00,VWS V14.00,2013-01-07 11:57:00,
2013-01-07 05:02:00,12.4,-4.9,23.00,NNE,30,0.0,0.0,45,0.00,,---,0.00,VWS V14.00,2013-01-07 12:02:00,
2013-01-07 05:07:00,12.2,-5.1,23.00,NNE,30,0.0,0.0,45,0.00,,---,0.00,VWS V14.00,2013-01-07 12:07:00,
2013-01-07 05:12:00,12.0,-5.2,23.00,NNE,30,0.0,0.0,45,0.00,,---,0.00,VWS V14.00,2013-01-07 12:12:00,
2013-01-07 05:18:00,11.8,-5.4,22.97,NNE,30,0.0,0.0,45,0.00,,---,0.00,VWS V14.00,2013-01-07 12:18:00,
2013-01-07 05:23:00,11.7,-5.6,22.97,NNE,30,0.0,0.0,45,0.00,,---,0.00,VWS V14.00,2013-01-07 12:23:00,
2013-01-07 05:28:00,11.5,-5.7,22.97,NNE,30,0.0,0.0,45,0.00,,---,0.00,VWS V14.00,2013-01-07 12:28:00,
2013-01-07 05:33:00,11.3,-5.9,22.97,NNE,30,0.0,0.0,45,0.00,,---,0.00,VWS V14.00,2013-01-07 12:33:00,
2013-01-07 05:38:00,11.1,-6.1,22.97,NNE,30,0.0,0.0,45,0.00,,---,0.00,VWS V14.00,2013-01-07 12:38:00,
2013-01-07 05:43:00,11.1,-6.1,22.97,NNE,30,0.0,0.0,45,0.00,,---,0.00,VWS V14.00,2013-01-07 12:43:00,
2013-01-07 05:48:00,10.9,-6.2,22.97,NNE,30,0.0,0.0,45,0.00,,---,0.00,VWS V14.00,2013-01-07 12:48:00,
2013-01-07 05:53:00,10.9,-6.2,22.97,NNE,30,0.0,0.0,45,0.00,,---,0.00,VWS V14.00,2013-01-07 12:53:00,
2013-01-07 05:58:00,10.8,-6.4,23.00,NNE,30,0.0,0.0,45,0.00,,---,0.00,VWS V14.00,2013-01-07 12:58:00,
2013-01-07 06:03:00,10.6,-6.6,23.00,NNE,30,0.0,0.0,45,0.00,,---,0.00,VWS V14.00,2013-01-07 13:03:00,
2013-01-07 06:08:00,10.4,-6.7,23.00,NNE,30,0.0,0.0,45,0.00,,---,0.00,VWS V14.00,2013-01-07 13:08:00,
2013-01-07 06:13:00,10.4,-6.7,23.00,NNE,30,0.0,0.0,45,0.00,,---,0.00,VWS V14.00,2013-01-07 13:13:00,
2013-01-07 06:18:00,10.2,-6.9,23.00,NNE,30,0.0,0.0,45,0.00,,---,0.00,VWS V14.00,2013-01-07 13:18:00,
2013-01-07 06:23:00,10.0,-7.1,23.00,NNE,30,0.0,0.0,45,0.00,,---,0.00,VWS V14.00,2013-01-07 13:23:00,
2013-01-07 06:28:00,10.0,-7.1,23.00,NNE,30,0.0,0.0,45,0.00,,---,0.00,VWS V14.00,2013-01-07 13:28:00,
2013-01-07 06:34:00,9.9,-7.2,23.00,NNE,30,0.0,0.0,45,0.00,,---,0.00,VWS V14.00,2013-01-07 13:34:00,
2013-01-07 06:39:00,9.7,-7.4,23.00,NNE,30,0.0,0.0,45,0.00,,---,0.00,VWS V14.00,2013-01-07 13:39:00,
2013-01-07 06:44:00,9.7,-7.4,23.00,NNE,30,0.0,0.0,45,0.00,,---,0.00,VWS V14.00,2013-01-07 13:44:00,
2013-01-07 06:49:00,9.5,-7.6,23.00,NNE,30,0.0,0.0,45,0.00,,---,0.00,VWS V14.00,2013-01-07 13:49:00,
2013-01-07 06:54:00,9.5,-7.6,23.00,NNE,30,0.0,0.0,45,0.00,,---,0.00,VWS V14.00,2013-01-07 13:54:00,
2013-01-07 06:59:00,9.3,-7.7,23.00,NNE,30,0.0,0.0,45,0.00,,---,0.00,VWS V14.00,2013-01-07 13:59:00,
2013-01-07 07:04:00,9.1,-7.9,23.00,NNE,30,0.0,0.0,45,0.00,,---,0.00,VWS V14.00,2013-01-07 14:04:00,
2013-01-07 07:09:00,9.1,-7.9,23.00,NNE,30,0.0,0.0,45,0.00,,---,0.00,VWS V14.00,2013-01-07 14:09:00,
2013-01-07 07:14:00,9.0,-8.1,23.00,NNE,30,0.0,0.0,45,0.00,,---,0.00,VWS V14.00,2013-01-07 14:14:00,
2013-01-07 07:19:00,9.0,-8.1,23.00,NNE,30,0.0,0.0,45,0.00,,---,0.00,VWS V14.00,2013-01-07 14:19:00,
2013-01-07 07:24:00,8.8,-8.2,23.00,NNE,30,0.0,0.0,45,0.00,,---,0.00,VWS V14.00,2013-01-07 14:24:00,
2013-01-07 07:29:00,8.8,-8.2,23.00,NNE,30,0.0,0.0,45,0.00,,---,0.00,VWS V14.00,2013-01-07 14:29:00,
2013-01-07 07:34:00,8.8,-8.2,23.00,NNE,30,0.0,0.0,45,0.00,,---,0.00,VWS V14.00,2013-01-07 14:34:00,
2013-01-07 07:39:00,8.6,-8.4,23.00,NNE,30,0.0,0.0,45,0.00,,---,0.00,VWS V14.00,2013-01-07 14:39:00,
2013-01-07 07:44:00,8.6,-8.4,23.00,NNE,30,0.0,0.0,45,0.00,,---,0.00,VWS V14.00,2013-01-07 14:44:00,
2013-01-07 07:49:00,8.6,-8.4,23.00,NNE,30,0.0,0.0,45,0.00,,---,0.00,VWS V14.00,2013-01-07 14:49:00,
2013-01-07 07:54:00,8.8,-8.2,23.00,NNE,30,0.0,0.0,45,0.00,,---,0.00,VWS V14.00,2013-01-07 14:54:00,
2013-01-07 07:59:00,8.8,-8.2,23.00,NNE,30,0.0,0.0,45,0.00,,---,0.00,VWS V14.00,2013-01-07 14:59:00,
2013-01-07 08:04:00,9.0,-8.1,23.00,NNE,30,0.0,0.0,45,0.00,,---,0.00,VWS V14.00,2013-01-07 15:04:00,
2013-01-07 08:09:00,9.1,-7.9,23.00,NNE,30,0.0,0.0,45,0.00,,---,0.00,VWS V14.00,2013-01-07 15:09:00,
2013-01-07 08:14:00,9.3,-7.7,23.00,NNE,30,0.0,0.0,45,0.00,,---,0.00,VWS V14.00,2013-01-07 15:14:00,
2013-01-07 08:20:00,9.7,-7.4,23.00,NNE,30,0.0,0.0,45,0.00,,---,0.00,VWS V14.00,2013-01-07 15:20:00,
2013-01-07 08:25:00,10.2,-6.9,23.00,NNE,30,0.0,0.0,45,0.00,,---,0.00,VWS V14.00,2013-01-07 15:25:00,
2013-01-07 08:30:00,10.6,-6.6,23.00,NNE,30,0.0,0.0,45,0.00,,---,0.00,VWS V14.00,2013-01-07 15:30:00,
2013-01-07 08:35:00,11.1,-6.1,23.00,NNE,30,0.0,0.0,45,0.00,,---,0.00,VWS V14.00,2013-01-07 15:35:00,
2013-01-07 08:40:00,11.7,-5.6,23.00,NNE,30,0.0,0.0,45,0.00,,---,0.00,VWS V14.00,2013-01-07 15:40:00,
2013-01-07 08:45:00,12.2,-5.1,23.00,NNE,30,0.0,0.0,45,0.00,,---,0.00,VWS V14.00,2013-01-07 15:45:00,
2013-01-07 08:50:00,13.1,-4.2,23.00,NNE,30,0.0,0.0,45,0.00,,---,0.00,VWS V14.00,2013-01-07 15:50:00,
2013-01-07 08:55:00,13.8,-3.6,23.00,NNE,30,0.0,0.0,45,0.00,,---,0.00,VWS V14.00,2013-01-07 15:55:00,
2013-01-07 09:00:00,14.7,-2.8,23.03,NNE,30,0.0,0.0,45,0.00,,---,0.00,VWS V14.00,2013-01-07 16:00:00,
2013-01-07 09:05:00,16.3,-1.3,23.03,NE,48,0.0,0.0,45,0.00,,---,0.00,VWS V14.00,2013-01-07 16:05:00,
2013-01-07 09:10:00,18.9,0.6,23.03,East,99,3.1,3.1,44,0.00,,---,0.00,VWS V14.00,2013-01-07 16:10:00,
2013-01-07 09:15:00,20.8,1.9,23.03,East,101,2.7,2.7,43,0.00,,---,0.00,VWS V14.00,2013-01-07 16:15:00,
2013-01-07 09:20:00,22.6,3.5,23.03,ESE,116,3.6,3.6,43,0.00,,---,0.00,VWS V14.00,2013-01-07 16:20:00,
2013-01-07 09:25:00,24.4,4.7,23.03,ESE,122,3.1,3.6,42,0.00,,---,0.00,VWS V14.00,2013-01-07 16:25:00,
2013-01-07 09:30:00,26.1,6.1,23.00,SE,128,2.7,2.7,42,0.00,,---,0.00,VWS V14.00,2013-01-07 16:30:00,
2013-01-07 09:35:00,27.3,6.7,23.00,ENE,59,4.0,4.0,41,0.00,,---,0.00,VWS V14.00,2013-01-07 16:35:00,
2013-01-07 09:40:00,28.4,7.7,23.00,ESE,115,6.3,6.3,41,0.00,,---,0.00,VWS V14.00,2013-01-07 16:40:00,
2013-01-07 09:45:00,29.3,8.5,23.03,East,79,4.0,7.6,41,0.00,,---,0.00,VWS V14.00,2013-01-07 16:45:00,
2013-01-07 09:50:00,29.8,9.0,23.03,East,96,5.8,8.1,41,0.00,,---,0.00,VWS V14.00,2013-01-07 16:50:00,
2013-01-07 09:55:00,30.4,9.5,23.03,ENE,57,5.4,7.2,41,0.00,,---,0.00,VWS V14.00,2013-01-07 16:55:00,
2013-01-07 10:00:00,31.1,10.2,23.03,ESE,112,3.6,5.8,41,0.00,,---,0.00,VWS V14.00,2013-01-07 17:00:00,
2013-01-07 10:05:00,32.2,11.1,23.03,East,84,3.6,3.6,41,0.00,,---,0.00,VWS V14.00,2013-01-07 17:05:00,
2013-01-07 10:10:00,32.7,11.6,23.03,SE,142,6.3,8.7,41,0.00,,---,0.00,VWS V14.00,2013-01-07 17:10:00,
2013-01-07 10:15:00,33.1,12.0,23.03,ESE,121,5.8,5.8,41,0.00,,---,0.00,VWS V14.00,2013-01-07 17:15:00,
2013-01-07 10:21:00,33.4,12.3,23.03,ESE,109,5.8,6.3,41,0.00,,---,0.00,VWS V14.00,2013-01-07 17:21:00,
2013-01-07 10:26:00,33.8,12.1,23.03,ESE,116,8.7,8.7,40,0.00,,---,0.00,VWS V14.00,2013-01-07 17:26:00,
2013-01-07 10:31:00,34.2,12.4,23.03,East,87,3.1,6.3,40,0.00,,---,0.00,VWS V14.00,2013-01-07 17:31:00,
2013-01-07 10:36:00,34.5,12.7,23.03,ENE,76,5.8,6.3,40,0.00,,---,0.00,VWS V14.00,2013-01-07 17:36:00,
2013-01-07 10:41:00,34.5,12.7,23.03,NE,37,0.0,4.0,40,0.00,,---,0.00,VWS V14.00,2013-01-07 17:41:00,
2013-01-07 10:46:00,34.7,12.9,23.03,East,81,5.4,10.5,40,0.00,,---,0.00,VWS V14.00,2013-01-07 17:46:00,
2013-01-07 10:51:00,34.2,12.4,23.03,ESE,109,5.4,8.1,40,0.00,,---,0.00,VWS V14.00,2013-01-07 17:51:00,
2013-01-07 10:56:00,34.5,12.7,23.03,ESE,105,4.0,4.0,40,0.00,,---,0.00,VWS V14.00,2013-01-07 17:56:00,
2013-01-07 11:01:00,35.1,13.2,23.03,SE,129,4.0,4.0,40,0.00,,---,0.00,VWS V14.00,2013-01-07 18:01:00,
2013-01-07 11:06:00,36.1,14.2,23.03,ESE,113,3.1,5.8,40,0.00,,---,0.00,VWS V14.00,2013-01-07 18:06:00,
2013-01-07 11:11:00,36.5,14.5,23.03,SE,146,4.9,8.7,40,0.00,,---,0.00,VWS V14.00,2013-01-07 18:11:00,
2013-01-07 11:16:00,36.7,14.6,23.03,SSE,149,6.7,6.7,40,0.00,,---,0.00,VWS V14.00,2013-01-07 18:16:00,
2013-01-07 11:21:00,36.9,14.8,23.03,East,94,5.8,5.8,40,0.00,,---,0.00,VWS V14.00,2013-01-07 18:21:00,
2013-01-07 11:26:00,37.4,14.7,23.03,ENE,74,4.9,4.9,39,0.00,,---,0.00,VWS V14.00,2013-01-07 18:26:00,
2013-01-07 11:31:00,37.6,14.9,23.03,ESE,109,3.6,4.9,39,0.00,,---,0.00,VWS V14.00,2013-01-07 18:31:00,
2013-01-07 11:36:00,37.4,14.7,23.03,East,101,3.6,5.8,39,0.00,,---,0.00,VWS V14.00,2013-01-07 18:36:00,
2013-01-07 11:41:00,37.8,15.0,23.03,East,93,3.1,3.6,39,0.00,,---,0.00,VWS V14.00,2013-01-07 18:41:00,
2013-01-07 11:46:00,37.9,15.2,23.00,East,86,6.3,6.3,39,0.00,,---,0.00,VWS V14.00,2013-01-07 18:46:00,
2013-01-07 11:51:00,37.6,14.9,23.00,North,6,3.6,5.8,39,0.00,,---,0.00,VWS V14.00,2013-01-07 18:51:00,
2013-01-07 11:56:00,37.4,14.7,23.00,NNE,29,3.6,4.9,39,0.00,,---,0.00,VWS V14.00,2013-01-07 18:56:00,
2013-01-07 12:01:00,37.4,14.7,23.00,SE,136,6.3,6.3,39,0.00,,---,0.00,VWS V14.00,2013-01-07 19:01:00,
2013-01-07 12:06:00,36.9,14.8,23.00,East,90,7.2,8.3,40,0.00,,---,0.00,VWS V14.00,2013-01-07 19:06:00,
2013-01-07 12:11:00,37.0,15.0,23.00,East,84,3.6,4.0,40,0.00,,---,0.00,VWS V14.00,2013-01-07 19:11:00,
2013-01-07 12:16:00,37.6,14.9,23.00,NNE,28,4.0,5.4,39,0.00,,---,0.00,VWS V14.00,2013-01-07 19:16:00,
2013-01-07 12:21:00,37.8,15.0,23.00,ESE,110,5.4,7.6,39,0.00,,---,0.00,VWS V14.00,2013-01-07 19:21:00,
2013-01-07 12:27:00,37.8,15.0,23.00,East,91,3.1,4.0,39,0.00,,---,0.00,VWS V14.00,2013-01-07 19:27:00,
2013-01-07 12:32:00,38.3,15.5,23.00,East,92,4.5,5.8,39,0.00,,---,0.00,VWS V14.00,2013-01-07 19:32:00,
2013-01-07 12:37:00,38.5,15.7,23.00,ENE,57,4.0,4.0,39,0.00,,---,0.00,VWS V14.00,2013-01-07 19:37:00,
2013-01-07 12:42:00,38.3,15.5,23.00,East,95,5.8,7.2,39,0.00,,---,0.00,VWS V14.00,2013-01-07 19:42:00,
2013-01-07 12:47:00,38.5,15.7,23.00,East,88,4.5,8.1,39,0.00,,---,0.00,VWS V14.00,2013-01-07 19:47:00,
2013-01-07 12:52:00,38.7,15.9,23.00,East,86,6.3,11.4,39,0.00,,---,0.00,VWS V14.00,2013-01-07 19:52:00,
2013-01-07 12:57:00,38.5,15.7,23.00,ENE,73,6.3,6.3,39,0.00,,---,0.00,VWS V14.00,2013-01-07 19:57:00,
2013-01-07 13:02:00,38.8,16.0,23.00,ESE,109,11.9,11.9,39,0.00,,---,0.00,VWS V14.00,2013-01-07 20:02:00,
2013-01-07 13:07:00,39.2,16.3,23.00,ENE,71,4.0,8.1,39,0.00,,---,0.00,VWS V14.00,2013-01-07 20:07:00,
2013-01-07 13:13:00,38.8,16.0,23.00,East,100,4.0,8.7,39,0.00,,---,0.00,VWS V14.00,2013-01-07 20:13:00,
2013-01-07 13:18:00,38.5,15.7,22.97,ESE,123,8.3,12.3,39,0.00,,---,0.00,VWS V14.00,2013-01-07 20:18:00,
2013-01-07 13:23:00,38.7,15.9,22.97,NNE,33,4.9,11.0,39,0.00,,---,0.00,VWS V14.00,2013-01-07 20:23:00,
2013-01-07 13:28:00,38.3,15.5,22.97,East,101,4.5,4.5,39,0.00,,---,0.00,VWS V14.00,2013-01-07 20:28:00,
2013-01-07 13:33:00,37.9,15.2,22.97,SSE,150,5.4,5.8,39,0.00,,---,0.00,VWS V14.00,2013-01-07 20:33:00,
2013-01-07 13:38:00,37.0,15.0,22.97,ENE,74,4.0,8.3,40,0.00,,---,0.00,VWS V14.00,2013-01-07 20:38:00,
2013-01-07 13:43:00,36.7,14.6,22.97,ENE,74,8.1,8.1,40,0.00,,---,0.00,VWS V14.00,2013-01-07 20:43:00,
2013-01-07 13:48:00,36.3,14.3,22.97,ESE,114,6.3,6.3,40,0.00,,---,0.00,VWS V14.00,2013-01-07 20:48:00,
2013-01-07 13:53:00,36.1,14.2,22.97,East,95,6.3,7.6,40,0.00,,---,0.00,VWS V14.00,2013-01-07 20:53:00,
2013-01-07 13:58:00,36.1,14.2,22.97,ENE,76,4.9,5.4,40,0.00,,---,0.00,VWS V14.00,2013-01-07 20:58:00,
2013-01-07 14:03:00,36.3,14.3,22.97,North,3,8.1,8.1,40,0.00,,---,0.00,VWS V14.00,2013-01-07 21:03:00,
2013-01-07 14:08:00,36.3,14.3,22.97,East,84,8.1,11.0,40,0.00,,---,0.00,VWS V14.00,2013-01-07 21:08:00,
2013-01-07 14:13:00,36.1,14.2,22.97,East,89,5.8,6.3,40,0.00,,---,0.00,VWS V14.00,2013-01-07 21:13:00,
2013-01-07 14:18:00,36.1,14.2,22.97,ESE,102,5.4,8.7,40,0.00,,---,0.00,VWS V14.00,2013-01-07 21:18:00,
2013-01-07 14:23:00,36.1,14.2,22.97,ESE,114,5.4,6.3,40,0.00,,---,0.00,VWS V14.00,2013-01-07 21:23:00,
2013-01-07 14:29:00,36.5,14.5,22.97,ESE,115,7.6,7.6,40,0.00,,---,0.00,VWS V14.00,2013-01-07 21:29:00,
2013-01-07 14:34:00,36.7,14.6,22.97,ESE,102,4.0,5.8,40,0.00,,---,0.00,VWS V14.00,2013-01-07 21:34:00,
2013-01-07 14:39:00,36.9,14.8,22.97,ESE,102,5.8,9.6,40,0.00,,---,0.00,VWS V14.00,2013-01-07 21:39:00,
2013-01-07 14:44:00,36.9,14.8,22.97,ESE,111,3.6,6.3,40,0.00,,---,0.00,VWS V14.00,2013-01-07 21:44:00,
2013-01-07 14:49:00,36.9,14.8,22.97,ENE,61,5.4,8.1,40,0.00,,---,0.00,VWS V14.00,2013-01-07 21:49:00,
2013-01-07 14:54:00,36.9,14.8,22.97,North,357,5.4,8.1,40,0.00,,---,0.00,VWS V14.00,2013-01-07 21:54:00,
2013-01-07 14:59:00,36.9,14.8,22.97,East,88,8.1,8.1,40,0.00,,---,0.00,VWS V14.00,2013-01-07 21:59:00,
2013-01-07 15:04:00,36.7,14.6,22.97,ESE,111,13.2,13.2,40,0.00,,---,0.00,VWS V14.00,2013-01-07 22:04:00,
2013-01-07 15:09:00,36.7,14.6,22.97,East,98,4.9,5.8,40,0.00,,---,0.00,VWS V14.00,2013-01-07 22:09:00,
2013-01-07 15:14:00,36.5,14.5,23.00,SSE,147,9.6,9.6,40,0.00,,---,0.00,VWS V14.00,2013-01-07 22:14:00,
2013-01-07 15:19:00,36.1,14.2,23.00,ENE,62,4.9,4.9,40,0.00,,---,0.00,VWS V14.00,2013-01-07 22:19:00,
2013-01-07 15:24:00,36.0,14.0,23.00,South,178,4.0,6.3,40,0.00,,---,0.00,VWS V14.00,2013-01-07 22:24:00,
2013-01-07 15:29:00,35.8,13.8,23.00,East,92,2.2,3.6,40,0.00,,---,0.00,VWS V14.00,2013-01-07 22:29:00,
2013-01-07 15:34:00,35.8,13.8,23.00,East,97,0.0,5.4,40,0.00,,---,0.00,VWS V14.00,2013-01-07 22:34:00,
2013-01-07 15:39:00,35.6,13.7,23.00,East,96,8.1,8.1,40,0.00,,---,0.00,VWS V14.00,2013-01-07 22:39:00,
2013-01-07 15:44:00,35.4,13.5,23.00,ENE,78,4.0,7.6,40,0.00,,---,0.00,VWS V14.00,2013-01-07 22:44:00,
2013-01-07 15:49:00,35.4,13.5,23.00,East,88,5.4,5.4,40,0.00,,---,0.00,VWS V14.00,2013-01-07 22:49:00,
2013-01-07 15:54:00,35.2,13.4,23.00,South,175,8.3,8.3,40,0.00,,---,0.00,VWS V14.00,2013-01-07 22:54:00,
2013-01-07 15:59:00,35.1,13.2,23.00,East,87,3.1,4.0,40,0.00,,---,0.00,VWS V14.00,2013-01-07 22:59:00,
2013-01-07 16:04:00,34.9,13.0,23.00,SE,126,3.6,4.9,40,0.00,,---,0.00,VWS V14.00,2013-01-07 23:04:00,
2013-01-07 16:10:00,34.7,12.9,23.00,ESE,114,5.8,5.8,40,0.00,,---,0.00,VWS V14.00,2013-01-07 23:10:00,
2013-01-07 16:15:00,34.5,12.7,23.00,ESE,111,8.7,8.7,40,0.00,,---,0.00,VWS V14.00,2013-01-07 23:15:00,
2013-01-07 16:20:00,34.5,12.7,23.00,SE,143,2.2,4.0,40,0.00,,---,0.00,VWS V14.00,2013-01-07 23:20:00,
2013-01-07 16:25:00,34.7,12.9,23.00,ESE,114,3.6,7.2,40,0.00,,---,0.00,VWS V14.00,2013-01-07 23:25:00,
2013-01-07 16:30:00,34.5,12.7,23.00,ENE,72,4.0,5.8,40,0.00,,---,0.00,VWS V14.00,2013-01-07 23:30:00,
2013-01-07 16:35:00,34.3,12.5,23.00,South,173,3.1,6.7,40,0.00,,---,0.00,VWS V14.00,2013-01-07 23:35:00,
2013-01-07 16:40:00,34.0,12.2,23.00,East,101,3.1,5.8,40,0.00,,---,0.00,VWS V14.00,2013-01-07 23:40:00,
2013-01-07 16:45:00,33.8,12.1,23.03,ESE,105,4.9,4.9,40,0.00,,---,0.00,VWS V14.00,2013-01-07 23:45:00,
2013-01-07 16:50:00,33.3,12.1,23.03,East,97,2.7,2.7,41,0.00,,---,0.00,VWS V14.00,2013-01-07 23:50:00,
2013-01-07 16:55:00,32.9,11.8,23.03,ESE,103,2.7,2.7,41,0.00,,---,0.00,VWS V14.00,2013-01-07 23:55:00,
2013-01-07 17:00:00,32.5,11.5,23.03,East,96,4.0,4.0,41,0.00,,---,0.00,VWS V14.00,2013-01-08 00:00:00,
2013-01-07 17:05:00,32.2,11.1,23.03,SE,137,3.1,3.1,41,0.00,,---,0.00,VWS V14.00,2013-01-08 00:05:00,
2013-01-07 17:10:00,31.8,10.8,23.03,East,87,2.7,4.9,41,0.00,,---,0.00,VWS V14.00,2013-01-08 00:10:00,
2013-01-07 17:15:00,31.5,10.5,23.03,East,89,0.0,2.7,41,0.00,,---,0.00,VWS V14.00,2013-01-08 00:15:00,
2013-01-07 17:20:00,31.1,10.2,23.03,East,96,0.0,2.7,41,0.00,,---,0.00,VWS V14.00,2013-01-08 00:20:00,
2013-01-07 17:25:00,30.7,9.8,23.03,ESE,106,2.2,4.0,41,0.00,,---,0.00,VWS V14.00,2013-01-08 00:25:00,
2013-01-07 17:30:00,30.4,9.5,23.06,East,91,2.7,3.1,41,0.00,,---,0.00,VWS V14.00,2013-01-08 00:30:00,
2013-01-07 17:35:00,29.8,9.0,23.06,ESE,114,3.6,4.9,41,0.00,,---,0.00,VWS V14.00,2013-01-08 00:35:00,
2013-01-07 17:40:00,29.5,8.7,23.06,ESE,102,4.5,4.9,41,0.00,,---,0.00,VWS V14.00,2013-01-08 00:40:00,
2013-01-07 17:45:00,29.3,8.5,23.03,East,93,2.2,2.2,41,0.00,,---,0.00,VWS V14.00,2013-01-08 00:45:00,
2013-01-07 17:51:00,28.9,8.2,23.03,ESE,103,3.1,4.9,41,0.00,,---,0.00,VWS V14.00,2013-01-08 00:51:00,
2013-01-07 17:56:00,28.6,7.9,23.03,East,97,3.6,4.0,41,0.00,,---,0.00,VWS V14.00,2013-01-08 00:56:00,
2013-01-07 18:01:00,28.4,7.7,23.03,East,98,3.6,4.9,41,0.00,,---,0.00,VWS V14.00,2013-01-08 01:01:00,
2013-01-07 18:06:00,28.2,7.6,23.03,ESE,102,3.6,4.9,41,0.00,,---,0.00,VWS V14.00,2013-01-08 01:06:00,
2013-01-07 18:11:00,28.0,7.4,23.03,East,99,2.7,3.6,41,0.00,,---,0.00,VWS V14.00,2013-01-08 01:11:00,
2013-01-07 18:16:00,27.9,7.2,23.06,SE,127,3.1,3.1,41,0.00,,---,0.00,VWS V14.00,2013-01-08 01:16:00,
2013-01-07 18:21:00,27.5,6.9,23.06,ESE,103,4.0,5.8,41,0.00,,---,0.00,VWS V14.00,2013-01-08 01:21:00,
2013-01-07 18:26:00,27.3,6.7,23.06,ESE,106,3.1,3.1,41,0.00,,---,0.00,VWS V14.00,2013-01-08 01:26:00,
2013-01-07 18:31:00,27.0,6.4,23.06,ESE,112,2.2,2.7,41,0.00,,---,0.00,VWS V14.00,2013-01-08 01:31:00,
2013-01-07 18:36:00,27.0,6.4,23.06,SE,124,4.0,4.0,41,0.00,,---,0.00,VWS V14.00,2013-01-08 01:36:00,
2013-01-07 18:41:00,27.0,6.4,23.06,ESE,103,4.0,4.0,41,0.00,,---,0.00,VWS V14.00,2013-01-08 01:41:00,
2013-01-07 18:46:00,27.0,6.4,23.06,ESE,103,3.1,3.1,41,0.00,,---,0.00,VWS V14.00,2013-01-08 01:46:00,
2013-01-07 18:51:00,26.8,6.2,23.06,ESE,113,2.7,3.6,41,0.00,,---,0.00,VWS V14.00,2013-01-08 01:51:00,
2013-01-07 18:56:00,27.1,6.6,23.06,ESE,108,3.6,3.6,41,0.00,,---,0.00,VWS V14.00,2013-01-08 01:56:00,
2013-01-07 19:01:00,27.3,6.7,23.06,East,98,3.6,3.6,41,0.00,,---,0.00,VWS V14.00,2013-01-08 02:01:00,
2013-01-07 19:06:00,27.1,6.6,23.06,East,100,2.7,3.1,41,0.00,,---,0.00,VWS V14.00,2013-01-08 02:06:00,
2013-01-07 19:11:00,27.0,6.4,23.06,East,98,3.6,4.0,41,0.00,,---,0.00,VWS V14.00,2013-01-08 02:11:00,
2013-01-07 19:16:00,26.8,6.2,23.06,ESE,109,5.4,5.4,41,0.00,,---,0.00,VWS V14.00,2013-01-08 02:16:00,
2013-01-07 19:21:00,26.4,6.4,23.06,ESE,102,3.6,4.9,42,0.00,,---,0.00,VWS V14.00,2013-01-08 02:21:00,
2013-01-07 19:26:00,26.4,6.4,23.06,ESE,114,0.0,0.0,42,0.00,,---,0.00,VWS V14.00,2013-01-08 02:26:00,
2013-01-07 19:31:00,26.1,6.1,23.06,ENE,57,0.0,2.7,42,0.00,,---,0.00,VWS V14.00,2013-01-08 02:31:00,
2013-01-07 19:36:00,25.9,6.0,23.06,NE,52,0.0,0.0,42,0.00,,---,0.00,VWS V14.00,2013-01-08 02:36:00,
2013-01-07 19:42:00,25.5,5.6,23.06,NE,52,0.0,0.0,42,0.00,,---,0.00,VWS V14.00,2013-01-08 02:42:00,
2013-01-07 19:47:00,25.2,5.3,23.06,NE,51,0.0,0.0,42,0.00,,---,0.00,VWS V14.00,2013-01-08 02:47:00,
2013-01-07 19:52:00,24.6,4.8,23.06,NE,51,0.0,0.0,42,0.00,,---,0.00,VWS V14.00,2013-01-08 02:52:00,
2013-01-07 19:57:00,24.3,4.5,23.06,NE,51,0.0,0.0,42,0.00,,---,0.00,VWS V14.00,2013-01-08 02:57:00,
2013-01-07 20:02:00,23.7,4.0,23.09,NE,51,0.0,0.0,42,0.00,,---,0.00,VWS V14.00,2013-01-08 03:02:00,
2013-01-07 20:07:00,23.5,3.8,23.09,NE,51,0.0,0.0,42,0.00,,---,0.00,VWS V14.00,2013-01-08 03:07:00,
2013-01-07 20:12:00,23.0,3.8,23.09,NE,51,0.0,0.0,43,0.00,,---,0.00,VWS V14.00,2013-01-08 03:12:00,
2013-01-07 20:17:00,22.8,3.7,23.09,NE,51,0.0,0.0,43,0.00,,---,0.00,VWS V14.00,2013-01-08 03:17:00,
2013-01-07 20:22:00,22.5,3.4,23.09,NE,51,0.0,0.0,43,0.00,,---,0.00,VWS V14.00,2013-01-08 03:22:00,
2013-01-07 20:27:00,22.1,3.0,23.09,NE,51,0.0,0.0,43,0.00,,---,0.00,VWS V14.00,2013-01-08 03:27:00,
2013-01-07 20:32:00,21.7,2.7,23.06,NE,51,0.0,0.0,43,0.00,,---,0.00,VWS V14.00,2013-01-08 03:32:00,
2013-01-07 20:37:00,21.6,2.5,23.06,NE,51,0.0,0.0,43,0.00,,---,0.00,VWS V14.00,2013-01-08 03:37:00,
2013-01-07 20:42:00,21.4,2.4,23.06,NE,51,0.0,0.0,43,0.00,,---,0.00,VWS V14.00,2013-01-08 03:42:00,
2013-01-07 20:47:00,21.0,2.0,23.06,NE,51,0.0,0.0,43,0.00,,---,0.00,VWS V14.00,2013-01-08 03:47:00,
2013-01-07 20:52:00,20.8,1.9,23.06,NE,51,0.0,0.0,43,0.00,,---,0.00,VWS V14.00,2013-01-08 03:52:00,
2013-01-07 20:57:00,20.5,1.5,23.06,NE,51,0.0,0.0,43,0.00,,---,0.00,VWS V14.00,2013-01-08 03:57:00,
2013-01-07 21:02:00,20.3,1.4,23.06,NE,51,0.0,0.0,43,0.00,,---,0.00,VWS V14.00,2013-01-08 04:02:00,
2013-01-07 21:07:00,20.1,1.2,23.06,NE,51,0.0,0.0,43,0.00,,---,0.00,VWS V14.00,2013-01-08 04:07:00,
2013-01-07 21:12:00,19.9,1.1,23.06,NE,51,0.0,0.0,43,0.00,,---,0.00,VWS V14.00,2013-01-08 04:12:00,
2013-01-07 21:18:00,19.8,0.9,23.06,NE,51,0.0,0.0,43,0.00,,---,0.00,VWS V14.00,2013-01-08 04:18:00,
2013-01-07 21:23:00,19.4,0.6,23.06,NE,51,0.0,0.0,43,0.00,,---,0.00,VWS V14.00,2013-01-08 04:23:00,
2013-01-07 21:28:00,19.2,0.4,23.06,NE,51,0.0,0.0,43,0.00,,---,0.00,VWS V14.00,2013-01-08 04:28:00,
2013-01-07 21:33:00,18.9,0.1,23.06,NE,51,0.0,0.0,43,0.00,,---,0.00,VWS V14.00,2013-01-08 04:33:00,
2013-01-07 21:38:00,18.7,-0.1,23.06,NE,51,0.0,0.0,43,0.00,,---,0.00,VWS V14.00,2013-01-08 04:38:00,
2013-01-07 21:43:00,18.5,-0.3,23.06,NE,51,0.0,0.0,43,0.00,,---,0.00,VWS V14.00,2013-01-08 04:43:00,
2013-01-07 21:48:00,18.1,-0.6,23.06,NE,51,0.0,0.0,43,0.00,,---,0.00,VWS V14.00,2013-01-08 04:48:00,
2013-01-07 21:53:00,18.0,-0.8,23.06,NE,51,0.0,0.0,43,0.00,,---,0.00,VWS V14.00,2013-01-08 04:53:00,
2013-01-07 21:58:00,17.6,-0.6,23.06,NE,51,0.0,0.0,44,0.00,,---,0.00,VWS V14.00,2013-01-08 04:58:00,
2013-01-07 22:00:00,17.6,-0.6,23.09,NE,51,0.0,0.0,44,0.00,,---,0.00,VWS V14.00,2013-01-08 05:00:00,
2013-01-07 22:03:00,17.4,-0.8,23.09,NE,51,0.0,0.0,44,0.00,,---,0.00,VWS V14.00,2013-01-08 05:03:00,
2013-01-07 22:05:00,17.4,-0.8,23.09,NE,51,0.0,0.0,44,0.00,,---,0.00,VWS V14.00,2013-01-08 05:05:00,
2013-01-07 22:06:00,17.2,-0.9,23.09,NE,51,0.0,0.0,44,0.00,,---,0.00,VWS V14.00,2013-01-08 05:06:00,
2013-01-07 22:11:00,17.1,-1.1,23.09,NE,51,0.0,0.0,44,0.00,,---,0.00,VWS V14.00,2013-01-08 05:11:00,
2013-01-07 22:16:00,16.9,-1.2,23.06,NE,51,0.0,0.0,44,0.00,,---,0.00,VWS V14.00,2013-01-08 05:16:00,
2013-01-07 22:21:00,16.7,-1.4,23.06,NE,51,0.0,0.0,44,0.00,,---,0.00,VWS V14.00,2013-01-08 05:21:00,
2013-01-07 22:26:00,16.5,-1.6,23.06,NE,51,0.0,0.0,44,0.00,,---,0.00,VWS V14.00,2013-01-08 05:26:00,
2013-01-07 22:31:00,16.2,-1.9,23.06,NE,51,0.0,0.0,44,0.00,,---,0.00,VWS V14.00,2013-01-08 05:31:00,
2013-01-07 22:36:00,16.0,-2.1,23.06,NE,51,0.0,0.0,44,0.00,,---,0.00,VWS V14.00,2013-01-08 05:36:00,
2013-01-07 22:41:00,15.8,-2.2,23.06,NE,51,0.0,0.0,44,0.00,,---,0.00,VWS V14.00,2013-01-08 05:41:00,
2013-01-07 22:46:00,15.4,-2.6,23.06,NE,51,0.0,0.0,44,0.00,,---,0.00,VWS V14.00,2013-01-08 05:46:00,
2013-01-07 22:52:00,15.3,-2.7,23.06,NE,51,0.0,0.0,44,0.00,,---,0.00,VWS V14.00,2013-01-08 05:52:00,
2013-01-07 22:57:00,15.1,-2.9,23.06,NE,51,0.0,0.0,44,0.00,,---,0.00,VWS V14.00,2013-01-08 05:57:00,
2013-01-07 23:02:00,14.9,-3.1,23.06,NE,51,0.0,0.0,44,0.00,,---,0.00,VWS V14.00,2013-01-08 06:02:00,
2013-01-07 23:07:00,14.7,-3.2,23.06,NE,51,0.0,0.0,44,0.00,,---,0.00,VWS V14.00,2013-01-08 06:07:00,
2013-01-07 23:12:00,14.5,-3.4,23.06,NE,51,0.0,0.0,44,0.00,,---,0.00,VWS V14.00,2013-01-08 06:12:00,
2013-01-07 23:17:00,14.5,-3.4,23.06,NE,51,0.0,0.0,44,0.00,,---,0.00,VWS V14.00,2013-01-08 06:17:00,
2013-01-07 23:22:00,14.4,-3.6,23.06,NE,51,0.0,0.0,44,0.00,,---,0.00,VWS V14.00,2013-01-08 06:22:00,
2013-01-07 23:27:00,14.2,-3.7,23.06,NE,51,0.0,0.0,44,0.00,,---,0.00,VWS V14.00,2013-01-08 06:27:00,
2013-01-07 23:32:00,14.0,-3.4,23.06,NE,51,0.0,0.0,45,0.00,,---,0.00,VWS V14.00,2013-01-08 06:32:00,
2013-01-07 23:37:00,13.8,-3.6,23.06,NE,51,0.0,0.0,45,0.00,,---,0.00,VWS V14.00,2013-01-08 06:37:00,
2013-01-07 23:42:00,13.6,-3.8,23.06,NE,51,0.0,0.0,45,0.00,,---,0.00,VWS V14.00,2013-01-08 06:42:00,
2013-01-07 23:47:00,13.5,-3.9,23.06,NE,51,0.0,0.0,45,0.00,,---,0.00,VWS V14.00,2013-01-08 06:47:00,
2013-01-07 23:52:00,13.3,-4.1,23.06,NE,51,0.0,0.0,45,0.00,,---,0.00,VWS V14.00,2013-01-08 06:52:00,
2013-01-07 23:57:00,13.1,-4.2,23.06,NE,51,0.0,0.0,45,0.00,,---,0.00,VWS V14.00,2013-01-08 06:57:00,